Weather observations for the past three days for
Ottumwa Regional Airport
Metric (Imperial)
Date Time (cdt) Wind (kph) Vis. (km) Weather Sky Cond. Temperature (ºC) Relative Humidity Wind Chill (°C) Heat Index (°C) Pressure Precipitation (cm)
Air Dwpt 6 hour altimeter (cm) sea level (mb) 1 hr 3 hr 6 hr
Max. Min.
08 16:53 SW 17 G 30 16.09 Fair CLR 21.7 2.8 29% 75.46 1005.9
08 15:53 SW 17 G 33 16.09 Fair CLR 21.1 3.3 31% 75.51 1006.6
08 14:53 SW 15 G 37 16.09 Fair CLR 21.1 5 35% 75.57 1007.3
08 13:53 S 17 G 30 16.09 Fair CLR 21.1 7.8 42% 75.62 1007.8
08 12:53 S 11 16.09 Fair CLR 18.9 8.9 18.9 7.8 52% 75.64 1008.2
08 11:53 S 13 16.09 Fair CLR 16.7 8.3 58% 75.69 1009.0
08 10:53 S 9 16.09 Mostly Cloudy BKN110 15 8.3 64% 75.74 1009.5
08 09:53 SW 9 16.09 Mostly Cloudy BKN095 13.3 8.9 75% 75.77 1010.0
08 08:53 S 11 16.09 Mostly Cloudy BKN095 11.1 8.3 83% 75.72 1009.4
08 07:53 E 6 16.09 Overcast FEW075 OVC095 9.4 6.7 83% 75.72 1009.4
08 06:53 Calm 16.09 Fair CLR 7.8 5.6 12.2 6.1 86% 75.72 1009.5
08 05:53 W 6 12.87 Fair CLR 7.8 6.1 89% 75.74 1009.6
08 04:53 SW 7 16.09 Fair CLR 7.2 5.6 90% 6 75.74 1009.6
08 03:53 W 11 16.09 Fair CLR 8.3 5 80% 7 75.69 1008.9
08 02:53 SW 13 16.09 Fair CLR 10 5.6 74% 8 75.69 1009.0
08 01:53 S 6 16.09 Fair CLR 10 5.6 74% 75.72 1009.3
08 00:53 SW 7 16.09 Fair CLR 11.7 5.6 18.9 11.7 66% 75.74 1009.7
07 23:53 S 7 16.09 Mostly Cloudy BKN070 BKN095 14.4 5.6 56% 75.77 1009.9
07 22:53 Vrbl 6 16.09 Overcast BKN080 OVC100 15 5 51% 75.77 1010.2
07 21:53 Calm 16.09 Overcast BKN090 OVC100 15.6 4.4 48% 75.74 1009.9
07 20:53 S 7 16.09 Overcast BKN090 OVC110 15.6 4.4 48% 75.69 1009.2
07 19:53 S 6 4.83 Mostly Cloudy with Haze FEW090 BKN110 16.7 3.9 43% 75.67 1008.7
07 18:53 SW 24 16.09 Overcast FEW080 BKN100 OVC120 18.9 2.2 20.6 17.2 33% 75.67 1008.7
07 17:53 W 24 16.09 Overcast SCT090 OVC110 20 2.2 31% 75.69 1009.1
07 16:53 W 17 16.09 Mostly Cloudy BKN110 19.4 2.2 32% 75.72 1009.5
07 15:53 SW 19 G 39 16.09 Mostly Cloudy SCT095 BKN110 19.4 1.7 31% 75.74 1009.8
07 14:53 W 17 G 31 16.09 A Few Clouds FEW120 18.3 2.8 36% 75.79 1010.6
07 13:53 Vrbl 11 16.09 Mostly Cloudy FEW060 SCT075 BKN100 17.8 3.9 40% 75.84 1011.2
07 12:53 W 13 G 31 16.09 Fair CLR 17.2 5 17.2 6.1 45% 75.92 1012.1
07 11:53 Vrbl 7 16.09 Partly Cloudy SCT120 15 4.4 49% 76 1013.2
07 10:53 Vrbl 7 16.09 A Few Clouds FEW090 12.8 3.9 55% 76.05 1014.1
07 09:53 N 15 16.09 Overcast FEW060 BKN075 OVC090 11.7 3.3 57% 76.05 1014.1
07 08:53 W 26 16.09 Mostly Cloudy FEW095 BKN110 11.1 2.2 55% 76.02 1013.6
07 07:53 SW 19 16.09 Fair CLR 9.4 0.6 55% 7 76.02 1013.6
07 06:53 S 17 16.09 Overcast OVC100 6.1 -0.6 6.7 2.8 63% 3 76 1013.6
07 05:53 S 13 16.09 Overcast OVC090 5.6 -1.1 62% 3 76 1013.5
07 04:53 S 11 16.09 Overcast OVC100 5 -1.7 62% 3 76.07 1014.5
07 03:53 S 11 16.09 Fair CLR 3.3 -2.2 68% 1 76.12 1015.0
07 02:53 S 13 16.09 Fair CLR 3.3 -1.7 70% 0 76.12 1015.2
07 01:53 S 13 16.09 Fair CLR 3.9 -1.7 67% 1 76.17 1015.9
07 00:53 S 9 16.09 Fair CLR 4.4 -1.1 12.8 3.9 68% 2 76.23 1016.3
06 23:53 S 6 16.09 Fair CLR 5 -2.8 57% 76.23 1016.5
06 22:53 S 6 16.09 Fair CLR 5.6 -3.9 51% 76.25 1016.7
06 21:53 Calm 16.09 Fair CLR 7.2 -4.4 44% 76.25 1016.7
05 21:53 NW 11 16.09 Fair CLR 10.6 -2.2 41% 75.84 1011.4
05 20:53 NW 17 16.09 Fair CLR 11.7 -2.8 37% 75.82 1011.0
05 19:53 W 9 16.09 A Few Clouds FEW075 11.1 2.2 55% 75.77 1010.4
05 18:53 W 11 16.09 Mostly Cloudy BKN110 13.3 0 14.4 11.7 40% 75.74 1010.1
05 17:53 W 13 G 28 16.09 Fair CLR 14.4 -0.6 36% 75.77 1010.0
Date Time (cdt) Wind (kph) Vis. (km) Weather Sky Cond. Air Dwpt Max. Min. Relative Humidity Wind Chill (°C) Heat Index (°C) altimeter (cm) sea level (mb) 1 hr 3 hr 6 hr
6 hour
Temperature (ºC) Pressure Precipitation (cm)